Time;durP1;ratioP1;P1;durP2;ratioP2;P2;SDS_P1;SDS_P2;PMS_P1;PMS_P2;Temp;Humidity;BMP_temperature;BMP_pressure;BME280_temperature;BME280_humidity;BME280_pressure;Samples;Min_cycle;Max_cycle;Signal;HPM_P1;HPM_P2
2021/05/14 00:00:22;;;;;;;;;;;;;;;22.11;44.69;100105.91;5035471;28;941;-54
2021/05/14 00:02:47;;;;;;;;;;;;;;;22.14;44.68;100105.25;5035508;28;764;-59
2021/05/14 00:05:13;;;;;;;;;;;;;;;21.99;45.11;100095.50;5035821;28;816;-59
2021/05/14 00:07:38;;;;;;;;;;;;;;;21.96;45.18;100098.09;5036664;28;1315;-59
2021/05/14 00:10:04;;;;;;;;;;;;;;;21.78;45.55;100092.56;5039275;28;771;-59
2021/05/14 00:12:30;;;;;;;;;;;;;;;21.99;45.14;100094.69;5038802;28;939;-59
2021/05/14 00:14:55;;;;;;;;;;;;;;;22.15;44.56;100083.94;5039064;28;1975;-55
2021/05/14 00:17:21;;;;;;;;;;;;;;;22.13;44.72;100087.03;5039284;28;770;-59
2021/05/14 00:19:46;;;;;;;;;;;;;;;22.14;44.62;100088.63;5039170;28;756;-59
2021/05/14 00:22:12;;;;;;;;;;;;;;;22.03;44.94;100093.72;5038879;28;1020;-60
2021/05/14 00:24:37;;;;;;;;;;;;;;;22.13;44.81;100084.25;5038792;28;812;-59
2021/05/14 00:27:03;;;;;;;;;;;;;;;22.03;45.09;100090.13;5038806;28;1021;-54
2021/05/14 00:29:28;;;;;;;;;;;;;;;22.03;44.92;100090.13;5038762;28;824;-57
2021/05/14 00:31:54;;;;;;;;;;;;;;;22.11;44.75;100102.34;5038641;28;752;-59
2021/05/14 00:34:20;;;;;;;;;;;;;;;22.17;44.66;100096.28;5038838;28;1985;-55
2021/05/14 00:36:46;;;;;;;;;;;;;;;22.19;44.61;100094.00;5038939;28;1116;-57
2021/05/14 00:39:11;;;;;;;;;;;;;;;22.14;44.95;100096.13;5038500;28;756;-59
2021/05/14 00:41:37;;;;;;;;;;;;;;;22.25;44.39;100099.38;5039005;28;1070;-60
2021/05/14 00:44:21;;;;;;;;;;;;;;;22.04;45.23;100097.28;5038661;28;847;-57
2021/05/14 00:46:46;;;;;;;;;;;;;;;22.18;44.58;100108.19;5038471;28;838;-54
2021/05/14 00:49:11;;;;;;;;;;;;;;;22.18;44.82;100097.91;5038469;28;855;-52
2021/05/14 00:51:37;;;;;;;;;;;;;;;22.19;44.73;100098.75;5021386;28;1140;-60
2021/05/14 00:54:02;;;;;;;;;;;;;;;22.25;44.57;100097.41;5038186;28;1980;-55
2021/05/14 00:56:28;;;;;;;;;;;;;;;22.29;44.55;100095.63;5038280;28;1006;-59
2021/05/14 00:58:53;;;;;;;;;;;;;;;22.18;44.79;100097.91;5038513;28;792;-59
2021/05/14 01:01:19;;;;;;;;;;;;;;;22.09;44.94;100099.06;5038211;28;855;-59
2021/05/14 01:03:44;;;;;;;;;;;;;;;22.14;44.87;100096.13;5038170;28;851;-55
2021/05/14 01:06:09;;;;;;;;;;;;;;;22.23;44.67;100088.63;5038584;28;836;-59
2021/05/14 01:08:35;;;;;;;;;;;;;;;22.19;44.86;100088.47;5038668;28;828;-57
2021/05/14 01:11:01;;;;;;;;;;;;;;;22.12;44.72;100085.41;5038054;28;1002;-59
2021/05/14 01:13:26;;;;;;;;;;;;;;;22.21;44.63;100080.63;5036964;28;943;-59
2021/05/14 01:15:52;;;;;;;;;;;;;;;22.31;44.29;100073.13;5038526;28;1911;-59
2021/05/14 01:18:17;;;;;;;;;;;;;;;22.28;44.47;100071.03;5037666;28;784;-59
2021/05/14 01:20:42;;;;;;;;;;;;;;;22.15;44.73;100067.31;5037858;28;1115;-59
2021/05/14 01:23:08;;;;;;;;;;;;;;;22.31;44.36;100062.06;5038102;28;903;-59
2021/05/14 01:25:33;;;;;;;;;;;;;;;22.37;44.23;100052.44;5037936;28;744;-59
2021/05/14 01:27:59;;;;;;;;;;;;;;;22.45;44.03;100059.91;5038075;28;966;-59
2021/05/14 01:30:24;;;;;;;;;;;;;;;21.90;45.24;100069.78;5038302;28;833;-57
2021/05/14 01:32:50;;;;;;;;;;;;;;;21.83;45.73;100070.28;5037344;28;771;-53
2021/05/14 01:35:15;;;;;;;;;;;;;;;21.36;46.96;100067.28;5037858;28;1907;-50
2021/05/14 01:37:41;;;;;;;;;;;;;;;21.70;45.85;100063.78;5037590;28;1195;-59
2021/05/14 01:40:06;;;;;;;;;;;;;;;22.09;44.84;100054.78;5037959;28;716;-55
2021/05/14 01:42:32;;;;;;;;;;;;;;;22.30;44.60;100052.13;5037337;28;952;-58
2021/05/14 01:44:57;;;;;;;;;;;;;;;22.42;44.26;100063.34;5037437;28;816;-59
2021/05/14 01:47:23;;;;;;;;;;;;;;;22.54;43.88;100046.84;5037316;28;811;-59
2021/05/14 01:49:48;;;;;;;;;;;;;;;22.17;44.87;100040.91;5037554;28;835;-59
2021/05/14 01:52:13;;;;;;;;;;;;;;;21.95;45.36;100044.72;5037494;28;768;-58
2021/05/14 01:54:39;;;;;;;;;;;;;;;21.77;44.91;100049.44;5037109;28;1981;-59
2021/05/14 01:57:04;;;;;;;;;;;;;;;21.68;46.00;100059.69;5037383;28;942;-59
2021/05/14 01:59:30;;;;;;;;;;;;;;;22.05;45.20;100062.94;5037087;28;1021;-56
2021/05/14 02:01:55;;;;;;;;;;;;;;;22.28;44.54;100057.97;5037009;28;862;-57
2021/05/14 02:04:21;;;;;;;;;;;;;;;22.35;44.23;100057.53;5037226;28;760;-56
2021/05/14 02:06:46;;;;;;;;;;;;;;;22.15;44.67;100059.81;5037451;28;921;-59
2021/05/14 02:09:12;;;;;;;;;;;;;;;22.01;45.16;100064.72;5037134;28;815;-59
2021/05/14 02:11:37;;;;;;;;;;;;;;;21.68;45.79;100063.25;5036818;28;994;-56
2021/05/14 02:14:03;;;;;;;;;;;;;;;21.91;45.26;100065.88;5036967;28;1914;-55
2021/05/14 02:16:28;;;;;;;;;;;;;;;21.70;45.67;100066.53;5036704;28;744;-59
2021/05/14 02:18:53;;;;;;;;;;;;;;;21.66;45.90;100070.28;5036746;28;791;-59
2021/05/14 02:21:19;;;;;;;;;;;;;;;21.38;46.25;100078.84;5036911;28;1185;-59
2021/05/14 02:23:44;;;;;;;;;;;;;;;21.25;46.55;100085.31;5036859;28;736;-53
2021/05/14 02:26:10;;;;;;;;;;;;;;;21.53;46.26;100095.00;5036622;28;990;-58
2021/05/14 02:28:35;;;;;;;;;;;;;;;21.83;45.52;100100.72;5036773;28;760;-56
2021/05/14 02:31:01;;;;;;;;;;;;;;;21.97;45.17;100105.28;5035914;28;787;-56
2021/05/14 02:33:26;;;;;;;;;;;;;;;22.13;44.63;100117.50;5036442;28;835;-57
2021/05/14 02:35:52;;;;;;;;;;;;;;;22.10;44.73;100115.34;5036584;28;1913;-59
2021/05/14 02:38:17;;;;;;;;;;;;;;;22.03;45.09;100107.56;5036719;28;776;-59
2021/05/14 02:40:43;;;;;;;;;;;;;;;21.77;45.51;100109.50;5036419;28;816;-51
2021/05/14 02:43:08;;;;;;;;;;;;;;;21.34;46.57;100108.28;5036129;28;948;-57
2021/05/14 02:45:34;;;;;;;;;;;;;;;21.42;46.48;100115.78;5036157;28;510;-58
2021/05/14 02:47:59;;;;;;;;;;;;;;;21.60;45.97;100116.66;5036425;28;991;-54
2021/05/14 02:50:25;;;;;;;;;;;;;;;21.79;45.66;100119.09;5036716;28;744;-58
2021/05/14 02:52:50;;;;;;;;;;;;;;;21.78;45.67;100111.94;5036000;28;824;-53
2021/05/14 02:55:16;;;;;;;;;;;;;;;21.91;45.07;100115.72;5036303;28;1915;-58
2021/05/14 02:57:43;;;;;;;;;;;;;;;22.12;44.82;100115.84;5036036;28;947;-59
2021/05/14 03:00:09;;;;;;;;;;;;;;;22.21;44.44;100113.06;5035796;28;752;-53
2021/05/14 03:02:34;;;;;;;;;;;;;;;22.12;44.63;100104.78;5036347;28;761;-56
2021/05/14 03:05:00;;;;;;;;;;;;;;;22.31;44.25;100114.69;5036409;28;749;-60
2021/05/14 03:07:25;;;;;;;;;;;;;;;22.26;44.38;100120.38;5036024;28;791;-57
2021/05/14 03:09:51;;;;;;;;;;;;;;;22.52;43.71;100112.84;5036146;28;832;-48
2021/05/14 03:12:16;;;;;;;;;;;;;;;22.25;44.31;100122.34;5035821;28;939;-60
2021/05/14 03:14:42;;;;;;;;;;;;;;;21.68;45.68;100112.28;5035491;28;1976;-49
2021/05/14 03:17:07;;;;;;;;;;;;;;;21.50;46.16;100117.75;5036249;28;820;-60
2021/05/14 03:19:32;;;;;;;;;;;;;;;21.45;46.43;100112.38;5036044;28;776;-58
2021/05/14 03:21:58;;;;;;;;;;;;;;;21.72;45.59;100123.50;5035627;28;1036;-62
2021/05/14 03:24:23;;;;;;;;;;;;;;;21.84;45.20;100121.72;5035071;28;1104;-51
2021/05/14 03:26:52;;;;;;;;;;;;;;;21.78;45.56;100111.94;5035850;28;1010;-50
2021/05/14 03:29:18;;;;;;;;;;;;;;;21.84;45.46;100112.63;5035571;28;772;-61
2021/05/14 03:31:43;;;;;;;;;;;;;;;21.81;45.47;100119.63;5035816;28;826;-53
2021/05/14 03:34:09;;;;;;;;;;;;;;;21.92;45.08;100116.50;5036015;28;1985;-59
2021/05/14 03:36:34;;;;;;;;;;;;;;;21.95;44.96;100126.94;5036007;28;1085;-55
2021/05/14 03:38:59;;;;;;;;;;;;;;;21.81;45.46;100119.63;5035811;28;752;-56
2021/05/14 03:41:33;;;;;;;;;;;;;;;21.83;45.47;100124.81;5037650;28;1011;-57
2021/05/14 03:43:58;;;;;;;;;;;;;;;22.01;44.81;100128.41;5039627;28;772;-55
2021/05/14 03:46:31;;;;;;;;;;;;;;;21.99;45.17;100133.44;5039558;28;815;-57
2021/05/14 03:48:57;;;;;;;;;;;;;;;22.11;44.83;100136.38;5039560;28;822;-50
2021/05/14 03:51:22;;;;;;;;;;;;;;;22.08;44.97;100128.72;5039536;28;824;-58
2021/05/14 03:53:48;;;;;;;;;;;;;;;22.12;44.50;100140.78;5039521;28;1914;-50
2021/05/14 03:56:13;;;;;;;;;;;;;;;22.04;44.82;100139.63;5039115;28;991;-58
2021/05/14 03:58:39;;;;;;;;;;;;;;;22.10;44.59;100156.88;5038678;28;1070;-53
2021/05/14 04:01:04;;;;;;;;;;;;;;;22.00;45.04;100148.91;5039193;28;886;-54
2021/05/14 04:03:29;;;;;;;;;;;;;;;22.25;44.25;100160.31;5039195;28;810;-53
2021/05/14 04:05:55;;;;;;;;;;;;;;;22.14;44.57;100152.31;5021821;28;1930;-50
2021/05/14 04:08:20;;;;;;;;;;;;;;;22.11;44.60;100155.75;5039752;28;835;-51
2021/05/14 04:10:51;;;;;;;;;;;;;;;21.97;44.93;100158.69;5039579;28;784;-61
2021/05/14 04:16:01;;;;;;;;;;;;;;;22.05;45.02;100165.38;5039407;28;1910;-57
2021/05/14 04:18:27;;;;;;;;;;;;;;;22.21;44.38;100169.25;5039307;28;787;-58
2021/05/14 04:20:52;;;;;;;;;;;;;;;22.35;44.12;100166.34;5039412;28;1065;-56
2021/05/14 04:23:18;;;;;;;;;;;;;;;22.18;44.40;100161.59;5038791;28;799;-61
2021/05/14 04:25:43;;;;;;;;;;;;;;;22.19;44.40;100166.00;5038988;28;827;-58
2021/05/14 04:28:09;;;;;;;;;;;;;;;22.04;44.88;100164.53;5038909;28;966;-57
2021/05/14 04:30:34;;;;;;;;;;;;;;;22.12;44.63;100162.91;5038514;28;843;-58
2021/05/14 04:33:00;;;;;;;;;;;;;;;22.39;43.93;100169.28;5038703;28;767;-59
2021/05/14 04:35:26;;;;;;;;;;;;;;;22.21;44.52;100174.00;5054224;28;1910;-59
2021/05/14 04:37:52;;;;;;;;;;;;;;;22.16;44.53;100174.97;5038500;28;1202;-58
2021/05/14 04:40:17;;;;;;;;;;;;;;;22.21;44.45;100174.78;5038976;28;760;-50
2021/05/14 04:42:43;;;;;;;;;;;;;;;22.34;44.32;100177.75;5038387;28;939;-53
2021/05/14 04:45:08;;;;;;;;;;;;;;;22.12;44.62;100185.06;5038423;28;788;-59
2021/05/14 04:47:35;;;;;;;;;;;;;;;22.15;44.68;100184.41;5021062;28;1119;-59
2021/05/14 04:50:00;;;;;;;;;;;;;;;22.29;44.36;100180.69;5038932;28;760;-59
2021/05/14 04:52:28;;;;;;;;;;;;;;;22.15;44.67;100181.66;5037723;28;820;-60
2021/05/14 04:54:55;;;;;;;;;;;;;;;22.36;44.23;100187.38;5037670;28;1914;-59
2021/05/14 04:57:20;;;;;;;;;;;;;;;21.73;45.65;100188.75;5037110;28;1017;-49
2021/05/14 04:59:46;;;;;;;;;;;;;;;21.59;46.07;100189.72;5037938;28;796;-49
2021/05/14 05:02:11;;;;;;;;;;;;;;;21.37;46.69;100196.13;5038772;28;732;-50
2021/05/14 05:04:36;;;;;;;;;;;;;;;21.74;45.91;100207.00;5038262;28;736;-59
2021/05/14 05:07:02;;;;;;;;;;;;;;;22.11;44.78;100196.47;5037907;28;804;-59
2021/05/14 05:09:28;;;;;;;;;;;;;;;22.48;43.97;100199.72;5038221;28;745;-59
2021/05/14 05:11:53;;;;;;;;;;;;;;;22.67;43.36;100202.16;5037933;28;931;-52
2021/05/14 05:14:19;;;;;;;;;;;;;;;22.74;43.45;100191.38;5037654;28;1902;-55
2021/05/14 05:16:44;;;;;;;;;;;;;;;22.26;44.41;100193.22;5038237;28;847;-53
2021/05/14 05:19:10;;;;;;;;;;;;;;;21.80;45.45;100198.22;5037756;28;748;-59
2021/05/14 05:21:35;;;;;;;;;;;;;;;21.43;45.91;100203.16;5037679;28;1098;-52
2021/05/14 05:24:01;;;;;;;;;;;;;;;21.59;46.13;100206.34;5038018;28;755;-59
2021/05/14 05:26:27;;;;;;;;;;;;;;;22.08;44.74;100197.94;5037768;28;959;-58
2021/05/14 05:28:52;;;;;;;;;;;;;;;22.28;44.29;100196.47;5037495;28;776;-59
2021/05/14 05:31:18;;;;;;;;;;;;;;;22.49;43.81;100202.16;5037867;28;812;-59
2021/05/14 05:33:43;;;;;;;;;;;;;;;22.48;43.99;100208.88;5037691;28;808;-63
2021/05/14 05:36:08;;;;;;;;;;;;;;;22.23;44.69;100207.69;5038023;28;1906;-61
2021/05/14 05:38:34;;;;;;;;;;;;;;;21.97;45.07;100205.75;5037774;28;768;-60
2021/05/14 05:40:59;;;;;;;;;;;;;;;21.45;45.95;100214.72;5037300;28;955;-60
2021/05/14 05:43:25;;;;;;;;;;;;;;;21.79;45.50;100217.94;5036801;28;1009;-62
2021/05/14 05:45:50;;;;;;;;;;;;;;;22.10;44.78;100223.34;5038008;28;760;-61
2021/05/14 05:48:16;;;;;;;;;;;;;;;22.42;43.97;100229.56;5037435;28;764;-62
2021/05/14 05:50:41;;;;;;;;;;;;;;;22.63;43.57;100223.34;5037311;28;784;-60
2021/05/14 05:53:08;;;;;;;;;;;;;;;22.27;44.34;100216.97;5037168;28;1035;-60
2021/05/14 05:55:33;;;;;;;;;;;;;;;22.01;44.92;100214.22;5037187;28;1968;-57
2021/05/14 05:58:05;;;;;;;;;;;;;;;21.69;45.28;100219.06;5037031;28;943;-58
2021/05/14 06:00:31;;;;;;;;;;;;;;;21.86;45.45;100210.75;5037232;28;792;-56
2021/05/14 06:02:56;;;;;;;;;;;;;;;22.15;44.64;100203.78;5037139;28;732;-61
2021/05/14 06:05:22;;;;;;;;;;;;;;;22.34;44.17;100208.22;5034773;28;749;-58
2021/05/14 06:07:47;;;;;;;;;;;;;;;22.52;44.05;100200.72;5036991;28;748;-62
2021/05/14 06:10:13;;;;;;;;;;;;;;;22.28;44.27;100206.75;5037102;28;816;-60
2021/05/14 06:12:38;;;;;;;;;;;;;;;22.24;44.45;100212.09;5035158;28;1390;-60
2021/05/14 06:15:04;;;;;;;;;;;;;;;22.00;44.87;100213.38;5036887;28;1991;-60
2021/05/14 06:17:29;;;;;;;;;;;;;;;21.62;46.05;100207.66;5036877;28;816;-48
2021/05/14 06:19:57;;;;;;;;;;;;;;;21.98;45.22;100220.38;5035415;28;772;-54
2021/05/14 06:22:23;;;;;;;;;;;;;;;22.36;44.17;100214.25;5037213;28;788;-57
2021/05/14 06:24:48;;;;;;;;;;;;;;;22.60;43.64;100224.03;5036667;28;764;-60
2021/05/14 06:27:13;;;;;;;;;;;;;;;22.29;44.40;100219.44;5036182;28;955;-53
2021/05/14 06:29:41;;;;;;;;;;;;;;;22.29;44.53;100213.91;5036707;28;748;-52
2021/05/14 06:32:07;;;;;;;;;;;;;;;21.90;44.90;100223.97;5036676;28;784;-51
2021/05/14 06:34:32;;;;;;;;;;;;;;;21.92;45.52;100221.69;5036424;28;1992;-53
2021/05/14 06:36:58;;;;;;;;;;;;;;;22.26;44.75;100217.31;5036647;28;1175;-60
2021/05/14 06:39:23;;;;;;;;;;;;;;;22.39;44.13;100230.22;5036190;28;1238;-53
2021/05/14 06:41:48;;;;;;;;;;;;;;;22.23;44.66;100221.53;5035837;28;959;-59
2021/05/14 06:44:14;;;;;;;;;;;;;;;22.14;44.65;100216.00;5036792;28;825;-59
2021/05/14 06:46:39;;;;;;;;;;;;;;;21.86;45.29;100226.56;5036606;28;780;-52
2021/05/14 06:49:07;;;;;;;;;;;;;;;21.82;45.60;100220.84;5036619;28;756;-59
2021/05/14 06:51:33;;;;;;;;;;;;;;;22.31;44.53;100223.50;5035313;28;812;-54
2021/05/14 06:53:58;;;;;;;;;;;;;;;22.24;44.68;100216.84;5036451;28;1898;-60
2021/05/14 06:56:24;;;;;;;;;;;;;;;22.00;45.47;100218.94;5036204;28;1029;-60
2021/05/14 06:58:49;;;;;;;;;;;;;;;21.92;45.16;100224.47;5036095;28;841;-52
2021/05/14 07:01:15;;;;;;;;;;;;;;;21.73;45.72;100230.28;5036415;28;804;-59
2021/05/14 07:03:40;;;;;;;;;;;;;;;21.97;45.44;100244.50;5036330;28;803;-54
2021/05/14 07:06:05;;;;;;;;;;;;;;;22.24;44.49;100234.25;5036153;28;806;-59
2021/05/14 07:08:31;;;;;;;;;;;;;;;22.46;44.09;100224.19;5036332;28;757;-55
2021/05/14 07:10:56;;;;;;;;;;;;;;;22.38;44.42;100234.13;5018757;28;1334;-53
2021/05/14 07:13:22;;;;;;;;;;;;;;;22.13;44.88;100231.00;5035309;28;954;-55
2021/05/14 07:15:48;;;;;;;;;;;;;;;21.45;46.21;100228.53;5035844;28;1910;-60
2021/05/14 07:18:13;;;;;;;;;;;;;;;21.55;46.55;100238.53;5036717;28;928;-55
2021/05/14 07:20:39;;;;;;;;;;;;;;;21.90;45.58;100240.59;5035455;28;1283;-58
2021/05/14 07:23:04;;;;;;;;;;;;;;;22.29;44.56;100247.16;5035939;28;812;-60
2021/05/14 07:25:30;;;;;;;;;;;;;;;22.35;44.40;100245.88;5036124;28;795;-53
2021/05/14 07:27:55;;;;;;;;;;;;;;;22.08;45.13;100247.78;5035305;28;947;-60
2021/05/14 07:30:21;;;;;;;;;;;;;;;21.96;45.55;100240.09;5036142;28;764;-56
2021/05/14 07:32:46;;;;;;;;;;;;;;;21.52;46.14;100237.22;5034775;28;1278;-57
2021/05/14 07:35:12;;;;;;;;;;;;;;;21.81;45.97;100246.91;5035312;28;1909;-56
2021/05/14 07:37:37;;;;;;;;;;;;;;;22.20;45.04;100234.09;5035859;28;1096;-60
2021/05/14 07:40:03;;;;;;;;;;;;;;;22.36;44.40;100242.75;5035914;28;791;-52
2021/05/14 07:42:29;;;;;;;;;;;;;;;22.27;44.56;100241.09;5034912;28;959;-58
2021/05/14 07:44:54;;;;;;;;;;;;;;;22.07;44.94;100246.13;5035887;28;851;-51
2021/05/14 07:47:19;;;;;;;;;;;;;;;21.71;45.80;100244.44;5035848;28;760;-53
2021/05/14 07:49:45;;;;;;;;;;;;;;;21.51;46.60;100241.09;5035254;28;800;-52
2021/05/14 07:52:10;;;;;;;;;;;;;;;21.94;45.39;100244.34;5035738;28;787;-53
2021/05/14 07:54:36;;;;;;;;;;;;;;;22.32;44.64;100235.41;5035964;28;1910;-53
2021/05/14 07:57:01;;;;;;;;;;;;;;;22.40;44.28;100234.63;5035124;28;967;-56
2021/05/14 07:59:27;;;;;;;;;;;;;;;22.20;44.87;100234.09;5035928;28;738;-56
2021/05/14 08:01:52;;;;;;;;;;;;;;;22.04;44.97;100241.25;5035968;28;796;-58
2021/05/14 08:04:18;;;;;;;;;;;;;;;21.70;45.35;100243.63;5035270;28;872;-59
2021/05/14 08:06:43;;;;;;;;;;;;;;;21.71;46.12;100247.19;5035689;28;761;-56
2021/05/14 08:09:11;;;;;;;;;;;;;;;22.19;44.87;100237.22;5035409;28;780;-49
2021/05/14 08:11:36;;;;;;;;;;;;;;;22.55;44.20;100239.66;5035305;28;947;-58
2021/05/14 08:14:02;;;;;;;;;;;;;;;22.33;44.53;100237.88;5035732;28;1906;-51
2021/05/14 08:16:27;;;;;;;;;;;;;;;22.17;44.85;100239.47;5035526;28;788;-59
2021/05/14 08:18:53;;;;;;;;;;;;;;;21.85;45.17;100245.13;5035089;28;783;-50
2021/05/14 08:21:21;;;;;;;;;;;;;;;21.92;45.52;100238.31;5035516;28;1020;-59
2021/05/14 08:23:47;;;;;;;;;;;;;;;22.38;44.44;100226.66;5035636;28;780;-61
2021/05/14 08:26:12;;;;;;;;;;;;;;;22.30;44.68;100229.38;5034626;28;954;-52
2021/05/14 08:28:38;;;;;;;;;;;;;;;22.21;44.82;100227.41;5037771;28;883;-61
2021/05/14 08:31:03;;;;;;;;;;;;;;;22.08;45.04;100222.03;5038756;28;745;-60
2021/05/14 08:33:28;;;;;;;;;;;;;;;21.73;45.27;100231.09;5038632;28;809;-60
2021/05/14 08:35:54;;;;;;;;;;;;;;;21.94;45.54;100217.47;5039173;28;1921;-51
2021/05/14 08:38:19;;;;;;;;;;;;;;;22.26;44.89;100226.44;5038644;28;732;-46
2021/05/14 08:40:45;;;;;;;;;;;;;;;22.53;44.02;100214.22;5038552;28;780;-65
2021/05/14 08:43:15;;;;;;;;;;;;;;;22.32;44.57;100218.78;5019978;28;972;-47
2021/05/14 08:45:41;;;;;;;;;;;;;;;22.16;44.82;100216.50;5038535;28;828;-46
2021/05/14 08:48:11;;;;;;;;;;;;;;;22.07;44.95;100220.41;5038397;28;891;-64
2021/05/14 08:50:37;;;;;;;;;;;;;;;21.86;45.68;100224.59;5039122;28;954;-64
2021/05/14 08:53:02;;;;;;;;;;;;;;;22.16;44.96;100216.50;5038332;28;789;-64
2021/05/14 08:55:27;;;;;;;;;;;;;;;22.48;44.25;100219.97;5038164;28;1981;-64
2021/05/14 08:57:53;;;;;;;;;;;;;;;22.65;43.87;100226.59;5036721;28;1264;-46
2021/05/14 09:00:19;;;;;;;;;;;;;;;22.63;43.90;100215.03;5038613;28;808;-57
2021/05/14 09:02:44;;;;;;;;;;;;;;;22.19;45.11;100226.94;5038088;28;776;-47
2021/05/14 09:05:22;;;;;;;;;;;;;;;21.98;45.13;100220.38;5038324;28;812;-48
2021/05/14 09:07:47;;;;;;;;;;;;;;;21.64;46.15;100225.56;5038529;28;787;-60
2021/05/14 09:10:13;;;;;;;;;;;;;;;21.98;45.28;100234.22;5037867;28;799;-45
2021/05/14 09:12:39;;;;;;;;;;;;;;;22.27;44.90;100235.56;5038339;28;955;-65
2021/05/14 09:15:24;;;;;;;;;;;;;;;22.31;44.46;100240.13;5038037;28;1977;-66
2021/05/14 09:18:10;;;;;;;;;;;;;;;22.28;44.82;100246.31;5038190;28;771;-52
2021/05/14 09:20:39;;;;;;;;;;;;;;;22.36;44.52;100245.53;5037984;28;1093;-46
2021/05/14 09:23:20;;;;;;;;;;;;;;;22.50;44.10;100236.25;5037996;28;756;-61
2021/05/14 09:25:54;;;;;;;;;;;;;;;22.42;44.38;100237.88;5037766;28;810;-64
2021/05/14 09:28:21;;;;;;;;;;;;;;;22.42;44.23;100232.34;5037918;28;970;-47
2021/05/14 09:31:05;;;;;;;;;;;;;;;22.30;44.71;100232.97;5037934;28;756;-47
2021/05/14 09:33:31;;;;;;;;;;;;;;;22.29;44.76;100228.56;5037320;28;783;-64
2021/05/14 09:35:57;;;;;;;;;;;;;;;22.32;44.72;100229.88;5037979;28;1967;-65
2021/05/14 09:38:22;;;;;;;;;;;;;;;22.41;44.53;100227.94;5037893;28;821;-57
2021/05/14 09:40:48;;;;;;;;;;;;;;;22.51;44.04;100227.63;5037335;28;776;-64
2021/05/14 09:43:13;;;;;;;;;;;;;;;22.53;43.98;100225.31;5037121;28;1002;-52
2021/05/14 09:45:39;;;;;;;;;;;;;;;22.49;44.13;100226.31;5036410;28;728;-62
2021/05/14 09:48:14;;;;;;;;;;;;;;;22.49;44.17;100235.41;5036854;28;756;-64
2021/05/14 09:50:40;;;;;;;;;;;;;;;22.09;45.15;100221.72;5037637;28;831;-52
2021/05/14 09:53:05;;;;;;;;;;;;;;;21.90;45.56;100235.06;5036489;28;784;-64
2021/05/14 09:55:31;;;;;;;;;;;;;;;21.51;46.24;100234.75;5036870;28;1914;-64
2021/05/14 09:58:02;;;;;;;;;;;;;;;21.80;45.85;100239.75;5037203;28;954;-65
2021/05/14 10:00:27;;;;;;;;;;;;;;;22.18;45.08;100224.50;5037240;28;768;-65
2021/05/14 10:02:53;;;;;;;;;;;;;;;22.61;43.96;100228.41;5037104;28;752;-64
2021/05/14 10:05:18;;;;;;;;;;;;;;;22.38;44.48;100218.34;5035699;28;905;-64
2021/05/14 10:07:45;;;;;;;;;;;;;;;22.31;44.73;100211.63;5037142;28;740;-64
2021/05/14 10:10:11;;;;;;;;;;;;;;;21.95;45.24;100209.97;5036998;28;800;-47
2021/05/14 10:12:37;;;;;;;;;;;;;;;21.86;43.81;100202.47;5036524;28;1022;-50
2021/05/14 10:15:03;;;;;;;;;;;;;;;21.82;45.98;100211.75;5036806;28;1918;-64
2021/05/14 10:17:28;;;;;;;;;;;;;;;22.29;44.71;100197.28;5036706;28;856;-64
2021/05/14 10:19:54;;;;;;;;;;;;;;;22.41;44.40;100204.97;5036931;28;788;-54
2021/05/14 10:22:20;;;;;;;;;;;;;;;22.51;44.30;100218.47;5036695;28;1067;-64
2021/05/14 10:24:46;;;;;;;;;;;;;;;22.24;44.77;100219.59;5035436;28;1258;-48
2021/05/14 10:27:18;;;;;;;;;;;;;;;21.66;45.30;100228.81;5036428;28;1002;-57
2021/05/14 10:29:44;;;;;;;;;;;;;;;21.81;45.46;100221.19;5036480;28;834;-50
2021/05/14 10:32:11;;;;;;;;;;;;;;;21.97;45.15;100229.84;5036482;28;759;-48
2021/05/14 10:34:36;;;;;;;;;;;;;;;22.21;44.73;100229.38;5036378;28;1906;-63
2021/05/14 10:37:01;;;;;;;;;;;;;;;22.32;44.36;100235.41;5036457;28;1096;-65
2021/05/14 10:39:36;;;;;;;;;;;;;;;22.14;44.69;100229.84;5036806;28;717;-55
2021/05/14 10:42:06;;;;;;;;;;;;;;;22.00;45.07;100240.28;5036404;28;967;-48
2021/05/14 10:44:38;;;;;;;;;;;;;;;22.09;44.86;100231.97;5036390;28;771;-50
2021/05/14 10:47:22;;;;;;;;;;;;;;;22.10;44.76;100245.47;5036181;28;771;-66
2021/05/14 10:49:51;;;;;;;;;;;;;;;22.31;44.12;100239.31;5036077;28;811;-63
2021/05/14 10:52:16;;;;;;;;;;;;;;;22.43;44.01;100228.44;5036195;28;804;-49
2021/05/14 10:54:42;;;;;;;;;;;;;;;22.50;43.65;100228.75;5034703;28;1973;-60
2021/05/14 10:57:08;;;;;;;;;;;;;;;22.45;43.81;100228.09;5035908;28;1085;-57
2021/05/14 10:59:34;;;;;;;;;;;;;;;22.47;43.83;100223.88;5036223;28;803;-66
2021/05/14 11:02:00;;;;;;;;;;;;;;;22.45;43.81;100222.56;5036339;28;775;-63
2021/05/14 11:04:37;;;;;;;;;;;;;;;22.58;43.50;100231.84;5036237;28;823;-65
2021/05/14 11:07:03;;;;;;;;;;;;;;;22.60;43.45;100246.19;5036120;28;796;-64
2021/05/14 11:09:28;;;;;;;;;;;;;;;22.64;43.40;100241.63;5034313;28;778;-55
2021/05/14 11:12:04;;;;;;;;;;;;;;;22.70;43.22;100224.47;5035756;28;1057;-66
2021/05/14 11:14:42;;;;;;;;;;;;;;;22.46;44.12;100225.00;5036046;28;1898;-58
2021/05/14 11:17:08;;;;;;;;;;;;;;;22.20;44.48;100211.13;5018012;28;1147;-61
2021/05/14 11:19:33;;;;;;;;;;;;;;;21.91;45.35;100209.81;5035989;28;795;-64
2021/05/14 11:22:31;;;;;;;;;;;;;;;21.75;45.56;100219.72;5034691;28;1406;-64
2021/05/14 11:25:13;;;;;;;;;;;;;;;21.93;45.40;100226.91;5034934;28;1147;-60
2021/05/14 11:27:38;;;;;;;;;;;;;;;22.39;44.34;100213.59;5035854;28;978;-64
2021/05/14 11:30:04;;;;;;;;;;;;;;;22.69;43.57;100222.03;5036227;28;779;-48
2021/05/14 11:32:33;;;;;;;;;;;;;;;22.32;44.42;100221.56;5035888;28;772;-49
2021/05/14 11:35:00;;;;;;;;;;;;;;;22.29;44.66;100227.75;5036230;28;1918;-61
2021/05/14 11:37:26;;;;;;;;;;;;;;;21.91;44.66;100237.50;5018704;28;1383;-63
2021/05/14 11:39:52;;;;;;;;;;;;;;;21.91;45.83;100239.44;5036050;28;827;-60
2021/05/14 11:42:18;;;;;;;;;;;;;;;22.42;44.46;100235.09;5035836;28;959;-63
2021/05/14 11:44:56;;;;;;;;;;;;;;;22.45;44.38;100245.53;5035456;28;936;-60
2021/05/14 11:47:22;;;;;;;;;;;;;;;22.29;44.65;100236.06;5035938;28;760;-62
2021/05/14 11:49:47;;;;;;;;;;;;;;;22.31;44.30;100223.50;5035251;28;847;-62
2021/05/14 11:52:13;;;;;;;;;;;;;;;21.79;46.11;100224.28;5018747;28;1278;-55
2021/05/14 11:54:38;;;;;;;;;;;;;;;22.25;44.88;100215.69;5034190;28;1905;-61
2021/05/14 11:57:04;;;;;;;;;;;;;;;22.51;44.15;100226.78;5035823;28;971;-61
2021/05/14 11:59:29;;;;;;;;;;;;;;;22.67;43.70;100224.34;5036248;28;808;-59
2021/05/14 12:01:55;;;;;;;;;;;;;;;22.47;44.23;100215.56;5035793;28;795;-59
2021/05/14 12:04:20;;;;;;;;;;;;;;;22.15;44.88;100220.41;5039970;28;796;-59
2021/05/14 12:06:46;;;;;;;;;;;;;;;21.91;45.54;100217.28;5039850;28;782;-61
2021/05/14 12:09:12;;;;;;;;;;;;;;;22.03;45.54;100209.16;5039461;28;748;-60
2021/05/14 12:11:38;;;;;;;;;;;;;;;22.55;44.32;100211.13;5038410;28;1001;-60
2021/05/14 12:14:03;;;;;;;;;;;;;;;22.13;45.10;100217.16;5039723;28;1914;-61
2021/05/14 12:16:29;;;;;;;;;;;;;;;21.88;45.84;100230.66;5039415;28;756;-61
2021/05/14 12:18:54;;;;;;;;;;;;;;;21.54;46.51;100239.66;5039551;28;840;-62
2021/05/14 12:21:29;;;;;;;;;;;;;;;21.62;46.48;100243.59;5039325;28;1238;-61
2021/05/14 12:23:55;;;;;;;;;;;;;;;22.04;45.29;100258.66;5039280;28;772;-63
2021/05/14 12:26:21;;;;;;;;;;;;;;;22.14;45.07;100260.31;5038995;28;979;-60
2021/05/14 12:28:47;;;;;;;;;;;;;;;22.22;44.88;100253.16;5039337;28;811;-62
2021/05/14 12:31:13;;;;;;;;;;;;;;;22.37;44.56;100249.94;5038930;28;805;-59
2021/05/14 12:33:54;;;;;;;;;;;;;;;22.39;44.35;100242.09;5039291;28;776;-61
2021/05/14 12:36:24;;;;;;;;;;;;;;;22.35;44.53;100240.31;5038140;28;1909;-57
2021/05/14 12:38:50;;;;;;;;;;;;;;;22.32;44.71;100244.53;5039000;28;784;-59
2021/05/14 12:41:19;;;;;;;;;;;;;;;22.44;44.40;100243.91;5038927;28;967;-59
2021/05/14 12:43:44;;;;;;;;;;;;;;;22.48;44.24;100242.13;5038959;28;851;-61
2021/05/14 12:46:09;;;;;;;;;;;;;;;22.55;44.15;100250.75;5039217;28;791;-59
2021/05/14 12:48:35;;;;;;;;;;;;;;;22.63;44.02;100251.06;5039298;28;740;-61
2021/05/14 12:51:00;;;;;;;;;;;;;;;22.60;44.14;100240.66;5038983;28;768;-61
2021/05/14 12:53:26;;;;;;;;;;;;;;;22.50;44.28;100242.59;5038673;28;791;-59